Ruth, Nevada
Current Conditions -  °F | °C
As of 9:53 PM on Friday 28 Nov 2014 (Local Time) from KELY Reporting Station
Clear Clear  
Wind Chill: 35°   Ceiling: Unl
Heat Index: 43°   Visibility: 10mi
Dew Point: 12°   Wind: 18mph
Humidity: 28%   Direction: 190°S
Pressure: 29.9"   Gusts: NA
Location:  39.28°N, 114.99°W
Report Text: KELY 290553Z AUTO 19016KT 10SM CLR 06/M11 A2990 RMK AO2 SLP076 T00611111 10117 20044 58007
Loading
Personal Weather Stations






























Interactive Weather Map New forecast layout! Learn more

10-Day Weather Forecast

Advertisements
Track Severe Weather on mobile